Time;durP1;ratioP1;P1;durP2;ratioP2;P2;SDS_P1;SDS_P2;PMS_P1;PMS_P2;Temp;Humidity;BMP_temperature;BMP_pressure;BME280_temperature;BME280_humidity;BME280_pressure;Samples;Min_cycle;Max_cycle;Signal;HPM_P1;HPM_P2
2021/07/02 00:01:37;;;;;;;8.48;4.53;;;;;;;19.28;62.18;93500.28;5050390;28;20043;-74
2021/07/02 00:04:04;;;;;;;11.02;4.55;;;;;;;19.20;62.43;93494.81;5060185;28;20032;-74
2021/07/02 00:06:29;;;;;;;12.43;4.70;;;;;;;19.10;61.80;93492.06;5057434;28;20550;-74
2021/07/02 00:08:55;;;;;;;14.95;4.97;;;;;;;19.00;61.98;93491.59;5049736;28;20059;-74
2021/07/02 00:11:20;;;;;;;9.77;4.05;;;;;;;19.02;61.99;93489.31;5051333;28;20075;-74
2021/07/02 00:13:46;;;;;;;10.52;4.63;;;;;;;19.01;62.06;93485.06;5058386;28;20403;-74
2021/07/02 00:16:11;;;;;;;9.45;4.10;;;;;;;19.06;61.76;93477.75;5060399;28;20036;-74
2021/07/02 00:18:36;;;;;;;10.70;4.30;;;;;;;19.08;61.50;93483.56;5061583;28;20453;-74
2021/07/02 00:21:02;;;;;;;12.98;4.35;;;;;;;19.07;61.15;93482.00;5053309;28;20021;-74
2021/07/02 00:23:28;;;;;;;9.55;3.75;;;;;;;19.04;61.57;93489.69;5049416;28;20067;-74
2021/07/02 00:25:53;;;;;;;17.10;5.15;;;;;;;18.98;62.10;93493.91;5056364;28;20024;-74
2021/07/02 00:28:18;;;;;;;17.00;4.55;;;;;;;18.95;62.40;93500.06;5066233;28;20029;-74
2021/07/02 00:30:44;;;;;;;11.93;4.50;;;;;;;18.90;62.68;93511.19;5059194;28;20040;-74
2021/07/02 00:33:09;;;;;;;16.55;4.75;;;;;;;18.82;62.74;93515.75;5050772;28;20021;-74
2021/07/02 00:35:35;;;;;;;19.42;4.97;;;;;;;18.74;63.52;93543.81;5061299;28;20093;-74
2021/07/02 00:38:00;;;;;;;9.65;4.15;;;;;;;18.70;63.55;93544.94;5055122;28;20020;-74
2021/07/02 00:40:26;;;;;;;10.55;4.53;;;;;;;18.72;63.68;93550.75;5067294;28;20144;-74
2021/07/02 00:42:51;;;;;;;11.60;4.45;;;;;;;18.77;63.54;93558.53;5050870;28;20024;-74
2021/07/02 00:45:17;;;;;;;14.85;4.38;;;;;;;18.80;63.35;93571.28;5057322;28;20024;-74
2021/07/02 00:47:42;;;;;;;13.35;5.10;;;;;;;18.87;64.86;93586.78;5049534;28;20032;-74
2021/07/02 00:50:08;;;;;;;10.23;4.28;;;;;;;18.95;65.59;93591.09;5057476;28;20499;-74
2021/07/02 00:52:34;;;;;;;10.55;6.05;;;;;;;18.97;65.53;93589.59;5053227;28;20033;-74
2021/07/02 00:54:59;;;;;;;16.52;4.05;;;;;;;18.98;65.78;93591.13;5069065;28;20099;-74
2021/07/02 00:57:27;;;;;;;16.40;5.00;;;;;;;18.96;66.36;93585.31;5061837;28;20115;-74
2021/07/02 00:59:52;;;;;;;8.82;4.78;;;;;;;18.91;66.35;93585.69;5070523;28;20031;-74
2021/07/02 01:02:18;;;;;;;11.00;4.25;;;;;;;18.84;66.37;93580.97;5067225;28;20025;-73
2021/07/02 01:04:43;;;;;;;10.38;3.97;;;;;;;18.76;67.12;93576.63;5053549;28;20037;-73
2021/07/02 01:07:11;;;;;;;14.60;4.22;;;;;;;18.72;67.59;93583.13;5068844;28;20041;-73
2021/07/02 01:09:37;;;;;;;11.35;3.90;;;;;;;18.62;68.13;93576.47;5068849;28;20099;-73
2021/07/02 01:12:02;;;;;;;14.07;4.43;;;;;;;18.56;68.16;93562.56;5063093;28;20115;-73
2021/07/02 01:14:28;;;;;;;10.90;4.57;;;;;;;18.62;67.81;93560.28;5058950;28;20025;-74
2021/07/02 01:16:56;;;;;;;7.07;3.97;;;;;;;18.64;67.25;93564.19;5060525;28;20024;-74
2021/07/02 01:19:22;;;;;;;13.55;4.97;;;;;;;18.67;66.64;93553.78;5056960;28;20032;-74
2021/07/02 01:21:47;;;;;;;9.00;3.75;;;;;;;18.78;66.71;93563.53;5050473;28;20503;-74
2021/07/02 01:24:13;;;;;;;8.57;4.18;;;;;;;18.79;65.98;93558.94;5048686;28;20472;-74
2021/07/02 01:26:39;;;;;;;12.35;4.28;;;;;;;18.83;65.09;93559.75;5051445;28;20394;-74
2021/07/02 01:29:04;;;;;;;6.30;3.03;;;;;;;18.84;64.81;93558.59;5055132;28;20024;-74
2021/07/02 01:31:30;;;;;;;10.60;3.38;;;;;;;18.94;65.27;93563.31;5058185;28;20085;-74
2021/07/02 01:33:55;;;;;;;13.60;5.97;;;;;;;18.87;64.98;93552.47;5065160;28;20053;-74
2021/07/02 01:36:23;;;;;;;8.13;3.97;;;;;;;18.87;64.85;93544.38;5048452;28;20029;-74
2021/07/02 01:38:49;;;;;;;6.20;3.65;;;;;;;18.87;64.53;93548.97;5060527;28;20491;-73
2021/07/02 01:41:15;;;;;;;9.90;3.80;;;;;;;18.77;64.53;93553.88;5068509;28;20032;-73
2021/07/02 01:43:40;;;;;;;7.60;3.20;;;;;;;18.77;64.07;93550.41;5054398;28;20032;-73
2021/07/02 01:46:06;;;;;;;11.95;3.40;;;;;;;18.83;64.03;93548.97;5068425;28;20028;-73
2021/07/02 01:48:32;;;;;;;6.50;3.63;;;;;;;18.89;63.79;93531.25;5068358;28;20036;-74
2021/07/02 01:50:58;;;;;;;12.00;3.00;;;;;;;18.90;63.39;93540.91;5060230;28;20086;-73
2021/07/02 01:53:23;;;;;;;6.65;3.10;;;;;;;18.98;62.43;93533.63;5060753;28;20036;-74
2021/07/02 01:55:49;;;;;;;6.68;2.75;;;;;;;18.98;61.56;93539.81;5050840;28;20036;-74
2021/07/02 01:58:14;;;;;;;4.65;2.50;;;;;;;18.98;60.63;93539.81;5059551;28;20120;-74
2021/07/02 02:00:40;;;;;;;6.00;2.80;;;;;;;19.01;60.80;93528.28;5056610;28;20071;-74
2021/07/02 02:03:06;;;;;;;8.18;3.30;;;;;;;19.12;60.26;93530.28;5053835;28;20059;-73
2021/07/02 02:05:32;;;;;;;7.10;2.15;;;;;;;19.15;60.35;93533.00;5054938;28;20017;-74
2021/07/02 02:07:57;;;;;;;5.40;2.65;;;;;;;19.19;60.31;93522.22;5067873;28;20036;-73
2021/07/02 02:10:23;;;;;;;6.10;2.67;;;;;;;19.22;60.33;93516.84;5068390;28;20029;-73
2021/07/02 02:12:48;;;;;;;7.63;3.15;;;;;;;19.26;59.86;93514.16;5052438;28;20025;-73
2021/07/02 02:15:14;;;;;;;6.10;3.10;;;;;;;19.31;60.00;93508.41;5048163;28;20036;-73
2021/07/02 02:17:40;;;;;;;6.95;2.80;;;;;;;19.31;59.71;93513.03;5065020;28;20028;-74
2021/07/02 02:20:08;;;;;;;14.93;3.13;;;;;;;19.18;59.53;93502.53;5063088;28;20062;-74
2021/07/02 02:22:33;;;;;;;9.13;3.78;;;;;;;19.28;59.30;93503.75;5057592;28;20031;-73
2021/07/02 02:24:59;;;;;;;8.63;3.30;;;;;;;19.14;59.89;93504.44;5060130;28;20025;-74
2021/07/02 02:27:25;;;;;;;8.30;2.80;;;;;;;19.10;59.84;93508.28;5051904;28;20025;-74
2021/07/02 02:29:50;;;;;;;6.63;2.50;;;;;;;19.08;60.05;93502.47;5062913;28;20129;-73
2021/07/02 02:32:16;;;;;;;7.43;2.78;;;;;;;19.07;60.08;93503.59;5058783;28;20024;-74
2021/07/02 02:34:42;;;;;;;6.88;3.25;;;;;;;19.06;60.25;93499.38;5051519;28;20045;-74
2021/07/02 02:37:07;;;;;;;6.55;2.70;;;;;;;19.02;60.42;93508.22;5068009;28;20167;-74
2021/07/02 02:39:32;;;;;;;7.25;2.78;;;;;;;19.07;60.33;93507.09;5061997;28;20504;-74
2021/07/02 02:41:58;;;;;;;7.13;2.75;;;;;;;19.12;59.82;93514.06;5063076;28;20399;-74
2021/07/02 02:44:23;;;;;;;9.15;2.70;;;;;;;19.04;59.62;93502.44;5068869;28;20557;-74
2021/07/02 02:46:49;;;;;;;6.07;2.78;;;;;;;19.00;59.95;93509.75;5070070;28;20020;-74
2021/07/02 02:49:14;;;;;;;5.10;2.45;;;;;;;18.96;60.12;93517.81;5071208;28;20047;-74
2021/07/02 02:51:40;;;;;;;8.90;2.42;;;;;;;18.90;60.45;93519.31;5071386;28;20483;-74
2021/07/02 02:54:05;;;;;;;10.05;4.28;;;;;;;18.90;60.68;93521.22;5057557;28;20554;-74
2021/07/02 02:56:31;;;;;;;4.97;2.47;;;;;;;18.88;60.25;93527.00;5066293;28;20108;-73
2021/07/02 02:58:56;;;;;;;6.28;2.55;;;;;;;18.81;60.29;93535.06;5070842;28;20024;-73
2021/07/02 03:01:22;;;;;;;5.10;2.20;;;;;;;18.70;60.47;93526.03;5071349;28;20020;-73
2021/07/02 03:03:47;;;;;;;8.07;2.90;;;;;;;18.62;60.65;93534.09;5056990;28;20031;-73
2021/07/02 03:06:13;;;;;;;5.20;2.00;;;;;;;18.51;60.66;93525.09;5052380;28;20025;-74
2021/07/02 03:08:39;;;;;;;7.85;2.38;;;;;;;18.46;61.03;93530.84;5050695;28;20090;-74
2021/07/02 03:11:05;;;;;;;7.95;2.78;;;;;;;18.38;61.24;93542.72;5070579;28;20467;-74
2021/07/02 03:13:30;;;;;;;10.63;2.75;;;;;;;18.24;61.56;93533.31;5068117;28;20403;-73
2021/07/02 03:15:56;;;;;;;5.18;2.30;;;;;;;18.25;61.13;93539.47;5071549;28;20036;-73
2021/07/02 03:18:21;;;;;;;7.53;2.67;;;;;;;18.12;61.82;93544.38;5063152;28;20376;-73
2021/07/02 03:20:47;;;;;;;6.45;1.63;;;;;;;18.03;62.11;93549.25;5063316;28;20027;-73
2021/07/02 03:23:12;;;;;;;3.67;2.10;;;;;;;18.02;62.21;93550.41;5048492;28;20036;-73
2021/07/02 03:25:38;;;;;;;4.63;1.92;;;;;;;17.89;62.51;93563.34;5072186;28;20032;-73
2021/07/02 03:28:03;;;;;;;6.30;1.95;;;;;;;17.86;62.76;93558.69;5070503;28;20024;-73
2021/07/02 03:30:29;;;;;;;3.33;1.85;;;;;;;17.90;62.48;93559.50;5068075;28;20028;-74
2021/07/02 03:32:55;;;;;;;3.03;1.67;;;;;;;17.91;62.80;93554.88;5052545;28;20036;-73
2021/07/02 03:35:20;;;;;;;4.93;2.78;;;;;;;17.88;63.21;93556.41;5052652;28;20045;-74
2021/07/02 03:37:45;;;;;;;3.60;1.98;;;;;;;17.94;63.37;93554.16;5050683;28;20025;-74
2021/07/02 03:40:13;;;;;;;4.28;2.00;;;;;;;17.93;63.26;93556.09;5050632;28;20056;-74
2021/07/02 03:42:38;;;;;;;4.40;2.00;;;;;;;17.97;63.46;93554.22;5066991;28;20028;-74
2021/07/02 03:45:04;;;;;;;7.72;1.80;;;;;;;17.96;63.71;93557.28;5061303;28;20510;-73
2021/07/02 03:47:31;;;;;;;9.07;2.15;;;;;;;17.98;63.76;93554.97;5070401;28;20020;-73
2021/07/02 03:49:56;;;;;;;5.88;2.10;;;;;;;18.00;63.82;93558.09;5070336;28;20036;-73
2021/07/02 03:52:22;;;;;;;5.10;1.75;;;;;;;17.97;64.14;93558.81;5070298;28;20025;-74
2021/07/02 03:54:49;;;;;;;5.25;1.92;;;;;;;17.94;63.91;93565.72;5060484;28;20029;-74
2021/07/02 03:57:18;;;;;;;5.45;2.40;;;;;;;18.03;63.88;93568.13;5054977;28;20027;-74
2021/07/02 03:59:48;;;;;;;5.35;2.20;;;;;;;18.11;64.04;93558.22;5063323;28;20029;-74
2021/07/02 04:02:14;;;;;;;2.97;1.77;;;;;;;18.18;64.16;93563.69;5063020;28;20021;-74
2021/07/02 04:04:40;;;;;;;4.40;2.22;;;;;;;18.30;63.01;93560.75;5049902;28;20087;-74
2021/07/02 04:07:07;;;;;;;4.80;1.92;;;;;;;18.26;63.83;93578.81;5051121;28;20028;-74
2021/07/02 04:09:33;;;;;;;3.97;2.28;;;;;;;18.23;63.97;93572.22;5051300;28;20500;-75
2021/07/02 04:12:00;;;;;;;17.02;3.42;;;;;;;18.36;63.15;93574.66;5067691;28;20031;-74
2021/07/02 04:14:26;;;;;;;4.40;1.80;;;;;;;18.43;62.97;93569.34;5070162;28;20055;-75
2021/07/02 04:16:52;;;;;;;8.77;2.20;;;;;;;18.48;63.03;93570.94;5064227;28;20118;-75
2021/07/02 04:19:17;;;;;;;6.50;2.35;;;;;;;18.60;62.53;93576.88;5063153;28;20502;-75
2021/07/02 04:21:43;;;;;;;6.80;2.78;;;;;;;18.59;62.70;93578.00;5066293;28;20021;-75
2021/07/02 04:24:08;;;;;;;8.73;3.00;;;;;;;18.68;63.25;93593.13;5049260;28;20115;-75
2021/07/02 04:26:34;;;;;;;8.13;2.22;;;;;;;18.69;62.62;93597.38;5048774;28;20024;-75
2021/07/02 04:28:59;;;;;;;7.47;2.95;;;;;;;18.67;62.97;93603.16;5052170;28;20504;-75
2021/07/02 04:31:25;;;;;;;6.10;2.28;;;;;;;18.68;63.74;93599.28;5057647;28;20077;-75
2021/07/02 04:33:50;;;;;;;5.32;2.58;;;;;;;18.76;63.04;93608.25;5069172;28;20040;-75
2021/07/02 04:36:16;;;;;;;6.85;2.20;;;;;;;18.71;63.08;93605.91;5070618;28;20025;-75
2021/07/02 04:38:42;;;;;;;5.07;2.63;;;;;;;18.73;63.02;93606.31;5069050;28;20086;-74
2021/07/02 04:41:08;;;;;;;10.95;2.78;;;;;;;18.75;62.93;93617.50;5068661;28;20051;-74
2021/07/02 04:43:33;;;;;;;5.20;2.25;;;;;;;18.70;63.71;93615.91;5053636;28;20052;-75
2021/07/02 04:45:59;;;;;;;4.80;2.78;;;;;;;18.72;64.42;93597.41;5064023;28;20055;-74
2021/07/02 04:48:24;;;;;;;4.95;2.58;;;;;;;18.67;64.38;93600.44;5056322;28;20033;-74
2021/07/02 04:50:50;;;;;;;7.22;3.28;;;;;;;18.58;64.70;93608.06;5050214;28;20124;-74
2021/07/02 04:53:17;;;;;;;4.60;2.28;;;;;;;18.44;65.92;93609.47;5061109;28;20028;-74
2021/07/02 04:55:43;;;;;;;10.50;2.83;;;;;;;18.33;66.20;93608.56;5052574;28;20104;-74
2021/07/02 04:58:08;;;;;;;9.10;3.47;;;;;;;18.27;66.59;93601.16;5052239;28;20120;-74
2021/07/02 05:00:34;;;;;;;5.55;3.30;;;;;;;18.20;67.20;93605.34;5053966;28;20498;-74
2021/07/02 05:02:59;;;;;;;8.68;3.88;;;;;;;18.12;67.80;93614.47;5060256;28;20029;-74
2021/07/02 05:05:24;;;;;;;6.43;3.58;;;;;;;18.17;68.18;93613.38;5069308;28;20055;-74
2021/07/02 05:07:50;;;;;;;22.42;4.53;;;;;;;18.20;67.61;93615.34;5060138;28;20064;-74
2021/07/02 05:10:15;;;;;;;6.60;3.67;;;;;;;18.18;68.31;93613.00;5068926;28;20024;-74
2021/07/02 05:12:41;;;;;;;12.50;3.53;;;;;;;18.22;67.90;93608.44;5057855;28;20059;-74
2021/07/02 05:15:07;;;;;;;12.27;3.70;;;;;;;18.22;67.49;93608.44;5068421;28;20024;-74
2021/07/02 05:17:32;;;;;;;10.48;4.07;;;;;;;18.30;66.97;93611.22;5068711;28;20036;-74
2021/07/02 05:19:58;;;;;;;9.60;3.45;;;;;;;18.32;67.35;93604.31;5059831;28;20475;-74
2021/07/02 05:22:23;;;;;;;7.15;4.82;;;;;;;18.25;66.13;93636.59;5055762;28;21716;-73
2021/07/02 05:24:49;;;;;;;17.65;4.63;;;;;;;18.24;66.07;93611.53;5048570;28;20463;-73
2021/07/02 05:27:16;;;;;;;7.28;4.18;;;;;;;18.20;65.81;93626.91;5047945;28;20035;-73
2021/07/02 05:29:42;;;;;;;10.02;5.00;;;;;;;18.24;66.03;93622.34;5048403;28;20028;-73
2021/07/02 05:32:07;;;;;;;7.25;4.45;;;;;;;18.31;65.26;93618.16;5048228;28;21612;-73
2021/07/02 05:34:33;;;;;;;9.75;4.75;;;;;;;18.38;64.19;93623.66;5061802;28;20467;-73
2021/07/02 05:36:59;;;;;;;10.05;4.88;;;;;;;18.44;64.92;93624.91;5068613;28;20040;-73
2021/07/02 05:39:24;;;;;;;7.03;4.30;;;;;;;18.49;64.83;93621.84;5058184;28;20480;-73
2021/07/02 05:41:50;;;;;;;14.15;5.20;;;;;;;18.56;64.23;93638.13;5048481;28;20047;-73
2021/07/02 05:44:15;;;;;;;9.07;5.38;;;;;;;18.53;64.05;93649.66;5048086;28;20078;-72
2021/07/02 05:46:41;;;;;;;9.15;5.45;;;;;;;18.52;65.37;93640.03;5048565;28;20020;-73
2021/07/02 05:49:06;;;;;;;7.40;5.22;;;;;;;18.52;64.33;93639.22;5065187;28;20032;-73
2021/07/02 05:51:32;;;;;;;6.07;5.00;;;;;;;18.54;64.01;93629.63;5061105;28;20035;-73
2021/07/02 05:53:58;;;;;;;7.18;5.07;;;;;;;18.54;64.27;93635.03;5052603;28;20031;-73
2021/07/02 05:56:28;;;;;;;13.07;5.45;;;;;;;18.47;65.03;93648.44;5052628;28;20072;-72
2021/07/02 05:58:58;;;;;;;6.90;5.80;;;;;;;18.44;65.08;93639.16;5072516;28;20032;-73
2021/07/02 06:01:24;;;;;;;11.18;5.35;;;;;;;18.51;65.14;93634.97;5069403;28;20452;-73
2021/07/02 06:03:50;;;;;;;13.38;6.60;;;;;;;18.52;64.98;93650.81;5066477;28;20685;-73
2021/07/02 06:06:16;;;;;;;9.50;5.80;;;;;;;18.57;65.05;93663.97;5058089;28;20112;-72
2021/07/02 06:08:41;;;;;;;8.43;5.32;;;;;;;18.59;65.26;93666.31;5069206;28;20063;-72
2021/07/02 06:11:06;;;;;;;9.55;5.63;;;;;;;18.63;65.44;93670.59;5051932;28;20398;-72
2021/07/02 06:13:32;;;;;;;9.75;5.43;;;;;;;18.68;64.33;93669.47;5054714;28;20467;-72
2021/07/02 06:15:57;;;;;;;9.98;6.30;;;;;;;18.72;63.91;93673.00;5057542;28;20528;-72
2021/07/02 06:18:23;;;;;;;6.55;5.53;;;;;;;18.68;64.13;93663.31;5070224;28;20502;-72
2021/07/02 06:20:51;;;;;;;11.13;4.68;;;;;;;18.67;63.34;93676.03;5069885;28;20077;-72
2021/07/02 06:23:21;;;;;;;8.02;5.05;;;;;;;18.63;63.76;93677.91;5051672;28;20024;-73
2021/07/02 06:25:49;;;;;;;9.98;5.13;;;;;;;18.77;64.29;93667.28;5069535;28;20056;-74
2021/07/02 06:28:15;;;;;;;9.68;5.35;;;;;;;19.00;63.47;93677.94;5071406;28;20079;-73
2021/07/02 06:30:42;;;;;;;8.77;4.53;;;;;;;19.09;62.04;93680.38;5054760;28;20040;-73
2021/07/02 06:33:09;;;;;;;6.47;4.47;;;;;;;19.02;61.58;93691.88;5072778;28;20093;-73
2021/07/02 06:35:34;;;;;;;12.85;4.75;;;;;;;19.13;62.73;93691.19;5065221;28;20106;-76
2021/07/02 06:38:00;;;;;;;8.70;4.47;;;;;;;19.26;64.61;93694.41;5059513;28;20033;-77
2021/07/02 06:40:26;;;;;;;7.25;5.15;;;;;;;19.30;61.85;93693.31;5052649;28;20036;-76
2021/07/02 06:42:52;;;;;;;9.93;4.75;;;;;;;19.34;61.63;93691.41;5061060;28;20132;-74
2021/07/02 06:45:17;;;;;;;9.02;5.47;;;;;;;19.42;61.84;93698.44;5068416;28;20494;-79
2021/07/02 06:47:51;;;;;;;10.32;6.07;;;;;;;19.53;61.94;93690.41;5070349;28;20060;-82
2021/07/02 06:50:16;;;;;;;10.05;5.60;;;;;;;19.61;61.75;93704.75;5064089;28;20028;-77
2021/07/02 06:52:42;;;;;;;6.70;4.88;;;;;;;19.62;61.58;93690.88;5057573;28;20024;-79
2021/07/02 06:55:08;;;;;;;7.70;5.72;;;;;;;19.75;60.22;93685.97;5061664;28;20044;-80
2021/07/02 06:57:33;;;;;;;7.57;4.97;;;;;;;19.82;59.62;93688.75;5055167;28;20029;-79
2021/07/02 07:00:02;;;;;;;5.80;4.78;;;;;;;19.84;60.03;93701.88;5051194;28;20403;-78
2021/07/02 07:02:35;;;;;;;7.40;5.47;;;;;;;19.78;60.29;93697.97;5054015;28;20031;-78
2021/07/02 07:05:01;;;;;;;8.43;5.50;;;;;;;19.81;59.92;93703.41;5060458;28;20150;-79
2021/07/02 07:07:26;;;;;;;6.95;5.68;;;;;;;19.75;58.75;93698.72;5059376;28;20496;-78
2021/07/02 07:09:52;;;;;;;10.52;5.50;;;;;;;19.70;59.78;93707.13;5061839;28;20029;-79
2021/07/02 07:12:17;;;;;;;10.77;6.00;;;;;;;19.53;60.62;93698.50;5057268;28;20027;-78
2021/07/02 07:14:42;;;;;;;6.57;5.20;;;;;;;19.61;59.51;93704.75;5059221;28;20024;-78
2021/07/02 07:17:10;;;;;;;12.45;6.45;;;;;;;19.72;60.29;93721.09;5066333;28;20556;-78
2021/07/02 07:19:39;;;;;;;10.02;6.85;;;;;;;19.69;59.96;93729.94;5056863;28;20169;-77
2021/07/02 07:22:05;;;;;;;8.82;4.75;;;;;;;19.63;60.29;93707.88;5053236;28;20033;-77
2021/07/02 07:24:30;;;;;;;14.80;6.85;;;;;;;19.66;59.69;93704.41;5056910;28;20032;-78
2021/07/02 07:26:56;;;;;;;23.23;5.88;;;;;;;19.86;58.17;93706.91;5052904;28;20024;-77
2021/07/02 07:29:22;;;;;;;11.80;5.20;;;;;;;19.93;58.02;93705.03;5060384;28;20039;-78
2021/07/02 07:31:48;;;;;;;7.20;5.95;;;;;;;19.82;57.96;93706.88;5070038;28;20036;-76
2021/07/02 07:34:22;;;;;;;6.90;5.50;;;;;;;19.84;57.67;93701.88;5070291;28;20522;-74
2021/07/02 07:36:52;;;;;;;17.50;6.97;;;;;;;19.96;56.74;93715.09;5070759;28;20032;-73
2021/07/02 07:39:18;;;;;;;20.90;7.20;;;;;;;20.11;56.76;93720.59;5050541;28;20395;-77
2021/07/02 07:41:43;;;;;;;11.80;6.30;;;;;;;20.27;56.59;93709.50;5051696;28;20037;-77
2021/07/02 07:44:08;;;;;;;8.70;6.43;;;;;;;20.36;55.75;93709.94;5051881;28;20028;-75
2021/07/02 07:46:34;;;;;;;7.55;5.03;;;;;;;20.43;55.99;93708.06;5071469;28;20058;-77
2021/07/02 07:48:59;;;;;;;6.55;5.20;;;;;;;20.40;55.75;93716.16;5057273;28;20037;-76
2021/07/02 07:53:50;;;;;;;7.60;5.45;;;;;;;20.43;56.76;93713.47;5071493;28;20560;-78
2021/07/02 07:56:15;;;;;;;7.90;5.13;;;;;;;20.49;55.72;93711.16;5067487;28;20028;-78
2021/07/02 07:58:41;;;;;;;9.43;5.53;;;;;;;20.49;56.19;93711.16;5071037;28;20051;-76
2021/07/02 08:01:06;;;;;;;7.38;5.60;;;;;;;20.62;53.78;93712.41;5058418;28;20021;-77
2021/07/02 08:03:32;;;;;;;7.03;5.70;;;;;;;20.63;53.49;93715.88;5050058;28;20078;-76
2021/07/02 08:05:57;;;;;;;9.27;6.13;;;;;;;20.43;54.14;93712.66;5066280;28;20032;-75
2021/07/02 08:08:23;;;;;;;7.50;5.75;;;;;;;20.44;54.48;93708.81;5065603;28;20063;-76
2021/07/02 08:10:49;;;;;;;10.50;6.90;;;;;;;20.52;54.94;93713.13;5055868;28;20067;-76
2021/07/02 08:13:18;;;;;;;7.50;6.07;;;;;;;20.64;52.72;93703.91;5063608;28;20070;-73
2021/07/02 08:15:43;;;;;;;12.93;6.53;;;;;;;20.79;52.59;93700.09;5049571;28;20024;-73
2021/07/02 08:18:09;;;;;;;11.20;6.68;;;;;;;20.83;54.07;93705.53;5067444;28;20383;-76
2021/07/02 08:20:34;;;;;;;19.60;6.20;;;;;;;20.85;52.60;93714.06;5069481;28;20032;-75
2021/07/02 08:23:00;;;;;;;11.77;5.38;;;;;;;20.84;52.71;93698.94;5053544;28;20463;-74
2021/07/02 08:25:25;;;;;;;8.15;4.85;;;;;;;20.90;52.22;93710.19;5051006;28;20408;-77
2021/07/02 08:30:35;;;;;;;5.70;4.18;;;;;;;21.08;51.58;93697.47;5065886;28;20039;-77
2021/07/02 08:33:00;;;;;;;6.70;4.30;;;;;;;21.07;50.12;93695.16;5056344;28;20024;-77
2021/07/02 08:35:25;;;;;;;5.78;4.88;;;;;;;21.02;51.04;93691.66;5070277;28;20041;-77
2021/07/02 08:37:52;;;;;;;11.82;4.78;;;;;;;21.14;51.78;93671.53;5068051;28;20044;-74
2021/07/02 08:40:22;;;;;;;7.53;2.90;;;;;;;21.07;48.50;93693.22;5050547;28;20097;-74
2021/07/02 08:42:49;;;;;;;4.28;3.40;;;;;;;20.99;48.19;93688.94;5059162;28;20135;-75
2021/07/02 08:45:14;;;;;;;5.63;3.28;;;;;;;21.01;49.35;93684.69;5063294;28;20032;-73
2021/07/02 08:47:40;;;;;;;6.32;3.58;;;;;;;21.15;50.16;93677.75;5059449;28;20031;-76
2021/07/02 08:50:07;;;;;;;5.95;4.28;;;;;;;21.15;50.71;93677.75;5068722;28;20051;-75
2021/07/02 08:52:33;;;;;;;14.23;3.55;;;;;;;21.17;49.64;93686.28;5067411;28;20617;-77
2021/07/02 08:54:58;;;;;;;5.30;3.85;;;;;;;21.15;48.96;93683.19;5066824;28;20460;-76
2021/07/02 08:57:24;;;;;;;5.28;3.72;;;;;;;21.23;49.28;93682.03;5051547;28;20114;-76
2021/07/02 08:59:49;;;;;;;6.95;3.80;;;;;;;21.33;47.74;93702.16;5069850;28;20050;-75
2021/07/02 09:02:47;;;;;;;11.20;3.83;;;;;;;21.31;47.77;93680.09;5069929;28;20029;-75
2021/07/02 09:05:35;;;;;;;7.28;3.90;;;;;;;21.31;48.78;93694.44;5027058;28;20326;-76
2021/07/02 09:08:10;;;;;;;4.35;3.47;;;;;;;21.31;48.60;93691.72;5048868;28;20021;-77
2021/07/02 09:10:36;;;;;;;4.55;2.38;;;;;;;21.42;45.84;93697.94;5055827;28;20024;-78
2021/07/02 09:13:02;;;;;;;4.88;2.78;;;;;;;21.55;46.49;93676.66;5054150;28;20036;-77
2021/07/02 09:15:28;;;;;;;18.95;4.18;;;;;;;21.66;46.64;93665.03;5048443;28;20040;-76
2021/07/02 09:17:59;;;;;;;10.65;3.70;;;;;;;21.74;47.10;93677.44;5064341;28;20032;-76
2021/07/02 09:20:29;;;;;;;4.57;3.40;;;;;;;21.76;47.08;93667.75;5048751;28;20025;-76
2021/07/02 09:23:01;;;;;;;6.07;4.07;;;;;;;21.95;47.14;93663.06;5065467;28;20033;-77
2021/07/02 09:25:33;;;;;;;4.03;3.03;;;;;;;21.96;46.48;93676.25;5056948;28;20029;-78
2021/07/02 09:28:19;;;;;;;5.65;3.58;;;;;;;22.02;48.39;93658.41;5049752;28;20028;-77
2021/07/02 09:30:52;;;;;;;5.05;3.38;;;;;;;22.09;46.55;93684.00;5056353;28;20029;-75
2021/07/02 09:33:19;;;;;;;8.00;3.30;;;;;;;22.01;46.33;93669.66;5066678;28;20021;-77
2021/07/02 09:35:59;;;;;;;5.28;3.50;;;;;;;22.10;46.55;93652.97;5049597;28;20575;-77
2021/07/02 09:38:40;;;;;;;3.72;3.33;;;;;;;21.98;45.16;93665.78;5038782;28;20053;-76
2021/07/02 09:41:07;;;;;;;5.50;3.33;;;;;;;22.14;44.79;93659.94;5060146;28;20111;-77
2021/07/02 09:43:33;;;;;;;5.03;2.78;;;;;;;22.23;44.64;93645.97;5047219;28;20052;-77
2021/07/02 09:46:02;;;;;;;4.20;2.70;;;;;;;22.37;44.06;93661.47;5049771;28;20028;-76
2021/07/02 09:48:29;;;;;;;8.95;2.50;;;;;;;22.31;45.00;93658.38;5051080;28;20468;-77
2021/07/02 09:50:57;;;;;;;3.25;2.60;;;;;;;22.31;43.42;93663.00;5049552;28;20047;-77
2021/07/02 09:53:29;;;;;;;6.22;3.13;;;;;;;22.21;44.38;93661.88;5048016;28;20083;-77
2021/07/02 09:55:57;;;;;;;3.85;2.58;;;;;;;22.11;43.51;93659.94;5049328;28;20049;-76
2021/07/02 09:58:36;;;;;;;2.97;2.20;;;;;;;22.05;43.88;93651.44;5056714;28;20506;-77
2021/07/02 10:01:03;;;;;;;3.85;2.20;;;;;;;22.24;44.61;93644.81;5062065;28;20480;-77
2021/07/02 10:03:31;;;;;;;3.80;2.45;;;;;;;22.39;45.60;93659.91;5051587;28;20056;-77
2021/07/02 10:05:58;;;;;;;6.90;2.00;;;;;;;22.46;42.51;93652.91;5059260;28;20017;-77
2021/07/02 10:08:26;;;;;;;6.32;2.53;;;;;;;22.70;43.47;93653.97;5065773;28;20052;-77
2021/07/02 10:10:53;;;;;;;7.63;2.42;;;;;;;22.77;42.32;93649.25;5062998;28;20032;-77
2021/07/02 10:13:20;;;;;;;5.70;2.45;;;;;;;22.86;42.28;93648.84;5050364;28;20029;-77
2021/07/02 10:15:46;;;;;;;3.65;2.10;;;;;;;22.69;42.75;93655.13;5050381;28;20040;-77
2021/07/02 10:18:14;;;;;;;5.10;2.63;;;;;;;22.78;42.19;93641.91;5048000;28;20032;-75
2021/07/02 10:20:42;;;;;;;3.28;1.85;;;;;;;22.81;42.32;93646.53;5064488;28;20051;-77
2021/07/02 10:23:08;;;;;;;4.00;2.15;;;;;;;22.90;42.20;93633.28;5061050;28;20024;-77
2021/07/02 10:25:35;;;;;;;6.32;1.60;;;;;;;23.00;41.25;93646.03;5069085;28;20107;-77
2021/07/02 10:28:00;;;;;;;6.05;1.33;;;;;;;23.10;41.50;93632.81;5057721;28;20039;-78
2021/07/02 10:30:26;;;;;;;3.88;1.17;;;;;;;23.17;40.17;93651.81;5054396;28;20020;-76
2021/07/02 10:32:58;;;;;;;2.92;1.40;;;;;;;23.09;41.27;93628.56;5047591;28;20028;-78
2021/07/02 10:35:24;;;;;;;6.80;1.40;;;;;;;23.13;41.00;93632.03;5044520;28;20048;-77
2021/07/02 10:37:56;;;;;;;3.05;1.63;;;;;;;23.26;41.53;93635.81;5059163;28;20111;-78
2021/07/02 10:40:33;;;;;;;3.93;1.30;;;;;;;23.19;39.94;93639.34;5059999;28;20024;-77
2021/07/02 10:43:21;;;;;;;2.67;1.60;;;;;;;23.21;40.08;93626.13;5056940;28;20111;-78
2021/07/02 10:46:12;;;;;;;4.82;1.40;;;;;;;23.05;40.67;93600.63;5050679;28;20552;-77
2021/07/02 10:48:47;;;;;;;3.10;1.77;;;;;;;23.15;41.73;93610.66;5050565;28;20524;-76
2021/07/02 10:51:31;;;;;;;3.08;1.48;;;;;;;23.26;41.49;93622.22;5070416;28;20025;-77
2021/07/02 10:54:11;;;;;;;2.67;1.58;;;;;;;23.23;40.84;93623.03;5067782;28;20219;-79
2021/07/02 10:56:38;;;;;;;2.70;1.67;;;;;;;23.37;41.16;93622.91;5053270;28;20037;-78
2021/07/02 10:59:04;;;;;;;6.85;2.20;;;;;;;23.49;41.37;93621.66;5056531;28;20051;-75
2021/07/02 11:01:31;;;;;;;4.07;1.88;;;;;;;23.62;41.31;93621.94;5071050;28;20091;-74
2021/07/02 11:04:34;;;;;;;4.47;2.25;;;;;;;23.51;40.69;93603.00;5069580;28;20055;-77
2021/07/02 11:07:12;;;;;;;7.85;2.70;;;;;;;23.51;41.75;93611.16;5057347;28;20035;-78
2021/07/02 11:09:49;;;;;;;6.90;2.30;;;;;;;23.25;41.62;93612.53;5071122;28;20468;-78
2021/07/02 11:12:40;;;;;;;5.78;2.63;;;;;;;23.37;42.08;93606.59;5061782;28;20028;-76
2021/07/02 11:15:08;;;;;;;4.47;1.70;;;;;;;23.53;41.06;93608.00;5060184;28;20036;-78
2021/07/02 11:17:41;;;;;;;6.82;2.03;;;;;;;23.52;41.96;93609.19;5069733;28;20071;-77
2021/07/02 11:20:07;;;;;;;6.47;2.35;;;;;;;23.66;41.60;93600.91;5062029;28;20036;-78
2021/07/02 11:22:37;;;;;;;3.67;2.17;;;;;;;23.77;40.44;93612.50;5057323;28;20378;-76
2021/07/02 11:25:23;;;;;;;3.95;1.58;;;;;;;23.54;40.35;93598.69;5056208;28;20091;-77
2021/07/02 11:27:51;;;;;;;6.95;2.50;;;;;;;23.69;40.95;93615.66;5052260;28;20044;-76
2021/07/02 11:30:20;;;;;;;7.60;2.50;;;;;;;23.76;40.96;93600.03;5056117;28;20033;-78
2021/07/02 11:32:48;;;;;;;14.85;2.55;;;;;;;23.80;39.72;93605.47;5052080;28;20023;-77
2021/07/02 11:35:23;;;;;;;5.95;2.88;;;;;;;23.91;40.36;93616.25;5063390;28;20059;-77
2021/07/02 11:38:03;;;;;;;2.90;2.30;;;;;;;24.00;41.51;93606.44;5071317;28;20050;-76